Time;durP1;ratioP1;P1;durP2;ratioP2;P2;SDS_P1;SDS_P2;PMS_P1;PMS_P2;Temp;Humidity;BMP_temperature;BMP_pressure;BME280_temperature;BME280_humidity;BME280_pressure;Samples;Min_cycle;Max_cycle;Signal;HPM_P1;HPM_P2
2023/07/17 00:01:45;;;;;;;5.07;4.10;;;;;;;-144.30;42.00;83889.91;5021937;28;20217;-52
2023/07/17 00:04:12;;;;;;;4.40;4.00;;;;;;;-144.30;41.89;83887.91;5022931;28;20234;-52
2023/07/17 00:06:39;;;;;;;4.35;4.10;;;;;;;-144.30;41.97;83887.91;5021502;28;20193;-52
2023/07/17 00:09:06;;;;;;;4.43;4.03;;;;;;;-144.30;42.04;83897.84;5022305;28;20596;-52
2023/07/17 00:11:34;;;;;;;6.63;4.40;;;;;;;-144.30;42.14;83921.69;5022377;28;20209;-52
2023/07/17 00:14:02;;;;;;;3.90;3.60;;;;;;;-144.30;42.28;83945.53;5021817;28;20206;-52
2023/07/17 00:16:29;;;;;;;5.05;4.55;;;;;;;-144.30;42.46;83909.78;5022027;28;20247;-49
2023/07/17 00:18:57;;;;;;;4.20;4.00;;;;;;;-144.30;42.25;83929.66;5023237;28;20583;-48
2023/07/17 00:21:24;;;;;;;4.43;4.13;;;;;;;-144.30;42.37;83901.81;5021985;28;20221;-48
2023/07/17 00:23:51;;;;;;;5.85;4.47;;;;;;;-144.30;42.33;83911.75;5021529;28;20696;-51
2023/07/17 00:26:18;;;;;;;7.07;3.95;;;;;;;-144.30;42.54;83937.59;5023408;28;20197;-52
2023/07/17 00:28:45;;;;;;;5.75;3.97;;;;;;;-144.30;42.56;83949.50;5022010;28;20208;-52
2023/07/17 00:31:12;;;;;;;6.13;4.28;;;;;;;-144.30;42.46;83955.47;5021191;28;20259;-52
2023/07/17 00:33:38;;;;;;;9.80;4.20;;;;;;;-144.30;41.96;83901.81;5020230;28;20189;-53
2023/07/17 00:36:07;;;;;;;4.50;4.10;;;;;;;-144.30;42.17;83933.63;5021535;28;20197;-52
2023/07/17 00:38:34;;;;;;;7.13;4.63;;;;;;;-144.30;42.24;83977.34;5020719;28;20212;-50
2023/07/17 00:41:00;;;;;;;4.85;4.43;;;;;;;-144.30;41.93;83985.28;5022426;28;20224;-49
2023/07/17 00:43:27;;;;;;;4.85;4.20;;;;;;;-144.30;41.98;83959.44;5021899;28;20197;-52
2023/07/17 00:45:54;;;;;;;4.93;4.28;;;;;;;-144.30;41.66;83961.44;5020652;28;20194;-52
2023/07/17 00:48:21;;;;;;;6.28;4.45;;;;;;;-144.30;41.69;83929.66;5022308;28;20199;-48
2023/07/17 00:50:48;;;;;;;5.05;4.40;;;;;;;-144.30;41.79;83955.47;5021784;28;20198;-49
2023/07/17 00:53:17;;;;;;;4.88;4.43;;;;;;;-144.30;41.69;83983.28;5020618;28;20194;-50
2023/07/17 00:55:44;;;;;;;4.63;4.20;;;;;;;-144.30;41.90;83933.63;5022081;28;20202;-51
2023/07/17 00:58:11;;;;;;;5.05;4.40;;;;;;;-144.30;41.91;84013.09;5022364;28;20285;-51
2023/07/17 01:00:38;;;;;;;5.63;4.00;;;;;;;-144.30;42.03;83989.25;5021993;28;20211;-52
2023/07/17 01:03:06;;;;;;;4.13;3.83;;;;;;;-144.30;42.08;83965.41;5020998;28;20649;-52
2023/07/17 01:05:34;;;;;;;6.00;4.30;;;;;;;-144.30;42.08;83977.34;5020590;28;20198;-52
2023/07/17 01:08:01;;;;;;;4.72;4.32;;;;;;;-144.30;42.20;83997.22;5021974;28;20208;-53
2023/07/17 01:10:29;;;;;;;3.92;3.60;;;;;;;-144.30;41.94;84007.16;5021612;28;20684;-52
2023/07/17 01:12:56;;;;;;;4.78;4.38;;;;;;;-144.30;41.99;84027.00;5020145;28;20253;-53
2023/07/17 01:15:23;;;;;;;4.60;4.30;;;;;;;-144.30;41.96;83993.22;5021474;28;20287;-52
2023/07/17 01:17:50;;;;;;;5.78;4.05;;;;;;;-144.30;41.93;83973.38;5021616;28;20194;-53
2023/07/17 01:20:17;;;;;;;4.82;4.38;;;;;;;-144.30;41.62;83977.34;5019701;28;20288;-52
2023/07/17 01:23:07;;;;;;;4.57;4.18;;;;;;;-144.30;41.83;84003.16;5020931;28;20627;-50
2023/07/17 01:25:34;;;;;;;8.02;4.53;;;;;;;-144.30;41.78;84007.16;5015285;28;20220;-52
2023/07/17 01:28:01;;;;;;;7.13;4.30;;;;;;;-144.30;41.85;83991.25;5019719;28;20284;-49
2023/07/17 01:30:27;;;;;;;4.60;4.25;;;;;;;-144.30;41.96;84023.03;5020795;28;20193;-49
2023/07/17 01:32:54;;;;;;;5.05;4.53;;;;;;;-144.30;42.17;84005.16;5021965;28;20618;-50
2023/07/17 01:35:21;;;;;;;7.20;4.95;;;;;;;-144.30;41.83;83979.31;5019915;28;20204;-49
2023/07/17 01:37:48;;;;;;;5.18;4.78;;;;;;;-144.30;42.15;84031.00;5020707;28;20193;-49
2023/07/17 01:40:17;;;;;;;4.22;3.90;;;;;;;-144.30;42.01;83977.34;5021820;28;20642;-49
2023/07/17 01:42:44;;;;;;;4.53;4.13;;;;;;;-144.30;42.13;84017.06;5020172;28;20213;-49
2023/07/17 01:45:11;;;;;;;4.63;4.22;;;;;;;-144.30;42.17;83985.28;5020255;28;20201;-49
2023/07/17 01:47:37;;;;;;;4.45;4.10;;;;;;;-144.30;42.03;83977.34;5021588;28;20196;-52
2023/07/17 01:50:05;;;;;;;4.40;4.10;;;;;;;-144.30;42.10;84029.00;5020581;28;20202;-49
2023/07/17 01:52:32;;;;;;;6.30;4.47;;;;;;;-144.30;42.10;84009.13;5019826;28;20205;-53
2023/07/17 01:54:59;;;;;;;4.63;4.22;;;;;;;-144.30;42.00;84005.16;5019573;28;20198;-53
2023/07/17 01:57:27;;;;;;;4.47;4.07;;;;;;;-144.30;42.20;83983.28;5020788;28;20202;-52
2023/07/17 01:59:54;;;;;;;7.25;5.18;;;;;;;-144.30;42.21;83979.31;5021623;28;20197;-49
2023/07/17 02:02:21;;;;;;;4.28;3.97;;;;;;;-144.30;41.95;84015.09;5019908;28;20297;-51
2023/07/17 02:04:48;;;;;;;4.30;3.90;;;;;;;-144.30;42.29;84044.91;5020278;28;20275;-52
2023/07/17 02:07:15;;;;;;;4.80;4.15;;;;;;;-144.30;42.00;83997.22;5021696;28;20201;-52
2023/07/17 02:09:42;;;;;;;4.50;4.18;;;;;;;-144.30;42.29;83997.22;5019715;28;20390;-50
2023/07/17 02:12:09;;;;;;;6.38;4.55;;;;;;;-144.30;42.44;84038.94;5020225;28;20197;-51
2023/07/17 02:14:38;;;;;;;4.93;4.05;;;;;;;-144.30;42.43;84044.91;5021440;28;20198;-52
2023/07/17 02:17:05;;;;;;;7.45;4.22;;;;;;;-144.30;42.69;84029.00;5020357;28;20619;-52
2023/07/17 02:19:32;;;;;;;4.63;4.22;;;;;;;-144.30;42.66;84044.91;5019575;28;20712;-49
2023/07/17 02:21:59;;;;;;;6.50;4.60;;;;;;;-144.30;42.69;84058.81;5019292;28;20606;-50
2023/07/17 02:24:26;;;;;;;6.82;4.68;;;;;;;-144.30;42.84;84013.09;5020281;28;20284;-48
2023/07/17 02:26:54;;;;;;;5.03;4.55;;;;;;;-144.30;43.11;84040.91;5021267;28;20216;-49
2023/07/17 02:29:21;;;;;;;5.07;4.47;;;;;;;-144.30;43.29;84032.97;5019661;28;20739;-52
2023/07/17 02:31:49;;;;;;;4.80;4.40;;;;;;;-144.30;43.43;84068.75;5020104;28;20185;-53
2023/07/17 02:34:16;;;;;;;6.57;5.10;;;;;;;-144.30;43.41;84009.13;5022364;28;20235;-52
2023/07/17 02:36:43;;;;;;;5.68;4.43;;;;;;;-144.30;43.46;84044.91;5023786;28;20502;-52
2023/07/17 02:39:10;;;;;;;5.53;4.97;;;;;;;-144.30;43.51;84046.88;5023411;28;20199;-49
2023/07/17 02:41:37;;;;;;;5.03;4.60;;;;;;;-144.30;43.65;84070.72;5024786;28;20223;-50
2023/07/17 02:44:04;;;;;;;6.95;5.63;;;;;;;-144.30;43.76;84064.78;5020131;28;20202;-51
2023/07/17 02:46:31;;;;;;;5.57;5.18;;;;;;;-144.30;43.66;84048.88;5023482;28;20199;-49
2023/07/17 02:48:59;;;;;;;5.85;5.35;;;;;;;-144.30;43.69;84058.81;5025214;28;20194;-50
2023/07/17 02:51:26;;;;;;;6.20;5.63;;;;;;;-144.30;43.70;84029.00;5023757;28;20206;-52
2023/07/17 02:53:53;;;;;;;6.72;5.20;;;;;;;-144.30;44.00;84048.88;5023086;28;20201;-52
2023/07/17 02:56:21;;;;;;;5.65;5.20;;;;;;;-144.30;44.18;84031.00;5022250;28;20227;-53
2023/07/17 02:58:48;;;;;;;6.07;5.45;;;;;;;-144.30;44.55;84040.91;5024158;28;20201;-49
2023/07/17 03:01:15;;;;;;;6.35;5.70;;;;;;;-144.30;44.71;84013.09;5022612;28;20240;-50
2023/07/17 03:03:42;;;;;;;6.88;6.03;;;;;;;-144.30;45.00;84072.72;5024050;28;20228;-48
2023/07/17 03:06:11;;;;;;;6.78;6.15;;;;;;;-144.30;45.23;84086.63;5026825;28;20213;-49
2023/07/17 03:08:37;;;;;;;7.47;5.20;;;;;;;-144.30;45.46;83995.22;5034335;28;20280;-51
2023/07/17 03:11:05;;;;;;;6.25;5.65;;;;;;;-144.30;45.51;84052.84;5038674;28;20627;-52
2023/07/17 03:13:32;;;;;;;7.70;5.43;;;;;;;-144.30;45.95;84088.63;5053947;28;20199;-52
2023/07/17 03:15:59;;;;;;;6.72;5.57;;;;;;;-144.30;46.51;84080.66;5054091;28;20287;-53
2023/07/17 03:18:27;;;;;;;7.80;6.95;;;;;;;-144.30;47.42;84092.59;5053421;28;20200;-52
2023/07/17 03:20:55;;;;;;;9.13;5.70;;;;;;;-144.30;47.88;84072.72;5053642;28;20200;-50
2023/07/17 03:23:23;;;;;;;10.32;6.10;;;;;;;-144.30;48.25;84072.72;5054092;28;20631;-52
2023/07/17 03:25:50;;;;;;;6.88;6.28;;;;;;;-144.30;48.54;84068.75;5031783;28;20197;-49
2023/07/17 03:28:17;;;;;;;7.38;6.70;;;;;;;-144.30;49.01;84048.88;5032274;28;20209;-50
2023/07/17 03:30:44;;;;;;;7.40;6.60;;;;;;;-144.30;49.07;84112.47;5022343;28;20292;-50
2023/07/17 03:33:11;;;;;;;6.88;6.35;;;;;;;-144.30;49.02;84044.91;5023081;28;20228;-52
2023/07/17 03:35:38;;;;;;;8.27;6.82;;;;;;;-144.30;48.95;84050.84;5022469;28;20329;-50
2023/07/17 03:38:05;;;;;;;8.30;6.75;;;;;;;-144.30;49.39;84050.84;5023035;28;20197;-53
2023/07/17 03:40:34;;;;;;;14.88;11.18;;;;;;;-144.30;48.99;84084.66;5027589;28;20204;-51
2023/07/17 03:43:01;;;;;;;10.77;9.73;;;;;;;-144.30;48.90;84052.84;5032242;28;20696;-48
2023/07/17 03:45:28;;;;;;;13.50;8.10;;;;;;;-144.30;48.79;84054.84;5032846;28;20202;-48
2023/07/17 03:47:55;;;;;;;6.63;6.03;;;;;;;-144.30;48.69;84064.78;5022655;28;20276;-51
2023/07/17 03:50:22;;;;;;;12.80;10.48;;;;;;;-144.30;48.49;84027.00;5029421;28;20341;-49
2023/07/17 03:52:50;;;;;;;9.45;7.30;;;;;;;-144.30;48.45;83989.25;5032053;28;20202;-48
2023/07/17 03:55:17;;;;;;;12.45;6.95;;;;;;;-144.30;48.06;83973.38;5032853;28;20204;-52
2023/07/17 03:57:45;;;;;;;8.25;6.53;;;;;;;-144.30;47.45;83883.94;5033089;28;20205;-52
2023/07/17 04:00:14;;;;;;;9.23;7.30;;;;;;;-144.30;45.46;83726.97;5032589;28;20197;-52
2023/07/17 04:02:42;;;;;;;8.50;7.25;;;;;;;-144.30;43.09;83548.16;5032452;28;20236;-51
2023/07/17 04:05:10;;;;;;;8.80;7.43;;;;;;;-144.30;41.12;83353.44;5032301;28;20213;-50
2023/07/17 04:07:37;;;;;;;8.40;6.20;;;;;;;-144.30;39.40;83166.69;5032505;28;20201;-48
2023/07/17 04:10:05;;;;;;;8.52;6.43;;;;;;;-144.30;38.02;83101.13;5032815;28;20212;-49
2023/07/17 04:12:32;;;;;;;8.27;6.13;;;;;;;-144.30;37.28;82948.16;5032518;28;20259;-53
2023/07/17 04:15:01;;;;;;;8.35;7.22;;;;;;;-144.30;36.89;82892.53;5032142;28;20623;-53
2023/07/17 04:17:27;;;;;;;7.82;7.18;;;;;;;-144.30;36.12;82797.19;5031942;28;20287;-52
2023/07/17 04:19:54;;;;;;;11.85;7.80;;;;;;;-144.30;35.82;82642.25;5032169;28;20205;-53
2023/07/17 04:22:21;;;;;;;7.78;6.68;;;;;;;-144.30;34.67;82503.22;5031795;28;20236;-51
2023/07/17 04:24:48;;;;;;;11.23;7.05;;;;;;;-144.30;33.84;82415.81;5031383;28;20284;-52
2023/07/17 04:27:15;;;;;;;12.20;8.18;;;;;;;-144.30;33.02;82213.22;5030915;28;20208;-50
2023/07/17 04:29:42;;;;;;;11.38;10.20;;;;;;;-144.30;33.00;82233.09;5031077;28;20212;-51
2023/07/17 04:32:11;;;;;;;18.13;13.68;;;;;;;-144.30;32.66;82159.59;5027657;28;20186;-51
2023/07/17 04:34:37;;;;;;;16.55;11.63;;;;;;;-144.30;32.41;82109.94;5011445;28;20198;-52
2023/07/17 04:37:04;;;;;;;6.85;5.90;;;;;;;-144.30;32.34;82076.19;5011756;28;20745;-52
2023/07/17 04:39:31;;;;;;;8.52;6.45;;;;;;;-144.30;32.31;82002.69;5011750;28;20198;-52
2023/07/17 04:41:58;;;;;;;12.80;6.20;;;;;;;-144.30;31.25;81669.06;5011769;28;20229;-51
2023/07/17 04:44:25;;;;;;;9.05;7.43;;;;;;;-144.30;30.64;81637.31;5012206;28;20687;-50
2023/07/17 04:46:52;;;;;;;9.15;6.18;;;;;;;-144.30;30.64;81607.50;5011818;28;20204;-50
2023/07/17 04:49:20;;;;;;;8.98;6.22;;;;;;;-144.30;30.52;81524.13;5011854;28;20194;-51
2023/07/17 04:51:47;;;;;;;20.77;6.97;;;;;;;-144.30;29.42;81549.94;5011680;28;20267;-50
2023/07/17 04:54:14;;;;;;;9.38;5.93;;;;;;;-144.30;28.97;81180.59;5011726;28;20288;-50
2023/07/17 04:56:41;;;;;;;7.25;6.32;;;;;;;-144.30;29.04;81053.53;5011692;28;20205;-50
2023/07/17 04:59:08;;;;;;;10.48;5.93;;;;;;;-144.30;28.06;80795.44;5012049;28;20201;-52
2023/07/17 05:01:35;;;;;;;6.95;6.25;;;;;;;-144.30;27.81;80880.81;5011541;28;20201;-52
2023/07/17 05:04:02;;;;;;;8.20;5.90;;;;;;;-144.30;28.05;80968.16;5011294;28;20236;-52
2023/07/17 05:06:30;;;;;;;7.55;6.90;;;;;;;-144.30;27.78;80924.47;5011490;28;20296;-50
2023/07/17 05:08:57;;;;;;;10.70;5.78;;;;;;;-144.30;27.76;80851.03;5011418;28;20760;-50
2023/07/17 05:11:24;;;;;;;10.98;6.05;;;;;;;-144.30;27.28;80654.47;5011368;28;20193;-50
2023/07/17 05:13:50;;;;;;;18.77;15.57;;;;;;;-144.30;27.00;80592.94;5011317;28;20197;-50
2023/07/17 05:16:17;;;;;;;8.45;5.78;;;;;;;-144.30;26.67;80354.72;5011371;28;20203;-50
2023/07/17 05:18:44;;;;;;;6.43;5.70;;;;;;;-144.30;26.03;80231.66;5011735;28;20280;-51
2023/07/17 05:21:11;;;;;;;5.95;5.47;;;;;;;-144.30;25.68;80128.44;5011754;28;20200;-51
2023/07/17 05:23:39;;;;;;;11.98;5.20;;;;;;;-144.30;25.68;80146.31;5010994;28;20251;-50
2023/07/17 05:26:06;;;;;;;9.32;8.05;;;;;;;-144.30;25.25;80070.88;5011290;28;20208;-51
2023/07/17 05:28:35;;;;;;;5.88;5.10;;;;;;;-144.30;24.94;79866.44;5011080;28;20209;-52
2023/07/17 05:31:02;;;;;;;9.55;5.07;;;;;;;-144.30;25.15;79929.97;5011118;28;20288;-52
2023/07/17 05:33:29;;;;;;;8.00;5.30;;;;;;;-144.30;25.61;80191.97;5011003;28;20211;-51
2023/07/17 05:35:56;;;;;;;8.13;5.13;;;;;;;-144.30;25.36;80096.69;5011008;28;20197;-52
2023/07/17 05:38:23;;;;;;;7.65;6.75;;;;;;;-144.30;25.47;80084.78;5010939;28;20239;-52
2023/07/17 05:40:58;;;;;;;8.82;5.53;;;;;;;-144.30;24.99;80045.09;5011081;28;20650;-50
2023/07/17 05:43:25;;;;;;;9.70;6.13;;;;;;;-144.30;25.83;80211.81;5013191;28;20702;-51
2023/07/17 05:45:52;;;;;;;8.55;5.78;;;;;;;-144.30;25.69;80003.41;5029143;28;20192;-50
2023/07/17 05:48:19;;;;;;;12.77;10.90;;;;;;;-144.30;25.22;79963.69;5029560;28;20661;-53
2023/07/17 05:50:46;;;;;;;8.43;5.40;;;;;;;-144.30;25.60;80184.03;5030317;28;20197;-52
2023/07/17 05:53:13;;;;;;;9.23;6.88;;;;;;;-144.30;25.54;80227.69;5030228;28;20203;-52
2023/07/17 05:55:40;;;;;;;9.27;5.75;;;;;;;-144.30;25.92;80271.34;5030679;28;20670;-52
2023/07/17 05:58:08;;;;;;;9.20;6.60;;;;;;;-144.30;25.34;80098.66;5030288;28;20196;-52
2023/07/17 06:00:35;;;;;;;7.95;5.38;;;;;;;-144.30;25.77;80275.34;5030265;28;20208;-52
2023/07/17 06:03:02;;;;;;;6.18;5.60;;;;;;;-144.30;25.38;80346.78;5030035;28;20239;-52
2023/07/17 06:05:29;;;;;;;11.23;10.00;;;;;;;-144.30;26.04;80531.41;5030291;28;20288;-52
2023/07/17 06:07:56;;;;;;;8.25;5.15;;;;;;;-144.30;26.11;80487.72;5030499;28;20204;-52
2023/07/17 06:10:23;;;;;;;6.00;4.85;;;;;;;-144.30;26.12;80511.56;5029656;28;20197;-50
2023/07/17 06:12:50;;;;;;;7.80;5.57;;;;;;;-144.30;26.13;80336.88;5030240;28;20199;-50
2023/07/17 06:15:18;;;;;;;5.88;5.20;;;;;;;-144.30;25.66;80295.19;5030330;28;20203;-52
2023/07/17 06:17:45;;;;;;;11.80;4.97;;;;;;;-144.30;26.07;80358.69;5030037;28;20677;-49
2023/07/17 06:20:12;;;;;;;10.07;7.75;;;;;;;-144.30;25.95;80326.94;5030306;28;20192;-52
2023/07/17 06:22:39;;;;;;;6.78;5.25;;;;;;;-144.30;25.52;80420.22;5030031;28;20242;-49
2023/07/17 06:25:07;;;;;;;5.57;4.88;;;;;;;-144.30;25.85;80473.84;5030232;28;20200;-52
2023/07/17 06:27:34;;;;;;;6.35;5.65;;;;;;;-144.30;25.84;80442.06;5030018;28;20207;-52
2023/07/17 06:30:01;;;;;;;4.85;4.40;;;;;;;-144.30;25.91;80501.63;5030068;28;20203;-49
2023/07/17 06:32:29;;;;;;;9.10;5.43;;;;;;;-144.30;25.79;80388.47;5029877;28;20189;-52
2023/07/17 06:34:56;;;;;;;20.58;5.68;;;;;;;-144.30;26.42;80608.81;5030122;28;20193;-52
2023/07/17 06:37:23;;;;;;;9.48;5.00;;;;;;;-144.30;26.40;80581.03;5029921;28;20203;-52
2023/07/17 06:39:50;;;;;;;5.63;4.65;;;;;;;-144.30;26.37;80753.75;5030053;28;20207;-52
2023/07/17 06:42:17;;;;;;;5.80;4.70;;;;;;;-144.30;26.59;80855.00;5038428;28;20226;-49
2023/07/17 06:44:44;;;;;;;10.88;5.90;;;;;;;-144.30;26.94;80930.44;5049809;28;20231;-49
2023/07/17 06:47:11;;;;;;;28.35;25.38;;;;;;;-144.30;27.17;80892.72;5050174;28;20200;-50
2023/07/17 06:49:39;;;;;;;8.23;5.93;;;;;;;-144.30;26.86;80700.16;5050014;28;20200;-52
2023/07/17 06:52:07;;;;;;;5.38;4.97;;;;;;;-144.30;26.40;80592.94;5036002;28;20684;-50
2023/07/17 06:54:34;;;;;;;5.75;4.15;;;;;;;-144.30;26.00;80739.84;5020115;28;20204;-49
2023/07/17 06:57:01;;;;;;;6.72;5.22;;;;;;;-144.30;25.84;80723.97;5019452;28;20199;-49
2023/07/17 06:59:28;;;;;;;5.70;4.50;;;;;;;-144.30;26.73;80735.88;5024380;28;20204;-49
2023/07/17 07:01:55;;;;;;;5.78;5.25;;;;;;;-144.30;25.97;80743.81;5018556;28;20193;-52
2023/07/17 07:04:22;;;;;;;5.85;4.90;;;;;;;-144.30;26.63;80841.09;5019165;28;20239;-51
2023/07/17 07:06:51;;;;;;;8.75;4.93;;;;;;;-144.30;26.35;80862.94;5020355;28;20224;-53
2023/07/17 07:09:18;;;;;;;7.22;5.10;;;;;;;-144.30;26.43;81127.00;5020379;28;20280;-53
2023/07/17 07:11:45;;;;;;;6.90;4.32;;;;;;;-144.30;27.34;81184.56;5024143;28;20677;-53
2023/07/17 07:14:12;;;;;;;7.72;5.15;;;;;;;-144.30;27.53;81218.31;5021547;28;20718;-53
2023/07/17 07:16:39;;;;;;;5.80;4.75;;;;;;;-144.30;26.51;81140.91;5022288;28;20248;-53
2023/07/17 07:19:06;;;;;;;6.28;4.72;;;;;;;-144.30;27.67;81035.66;5022459;28;20201;-52
2023/07/17 07:21:33;;;;;;;6.78;5.75;;;;;;;-144.30;27.69;80952.28;5020883;28;20248;-53
2023/07/17 07:24:03;;;;;;;8.80;5.95;;;;;;;-144.30;26.88;81049.56;5023139;28;20551;-52
2023/07/17 07:26:31;;;;;;;8.00;5.30;;;;;;;-144.30;26.69;81057.50;5023454;28;20208;-51
2023/07/17 07:28:58;;;;;;;5.57;5.20;;;;;;;-144.30;26.17;81051.53;5022399;28;20204;-51
2023/07/17 07:31:25;;;;;;;11.18;5.05;;;;;;;-144.30;26.65;80930.44;5023213;28;20201;-49
2023/07/17 07:33:52;;;;;;;7.63;6.22;;;;;;;-144.30;26.20;81071.41;5021342;28;20280;-49
2023/07/17 07:36:19;;;;;;;5.95;4.93;;;;;;;-144.30;26.14;81220.31;5022941;28;20197;-49
2023/07/17 07:38:46;;;;;;;7.95;4.97;;;;;;;-144.30;25.88;81212.38;5025040;28;20300;-49
2023/07/17 07:41:14;;;;;;;5.38;4.90;;;;;;;-144.30;25.11;81142.88;5026295;28;20193;-49
2023/07/17 07:43:41;;;;;;;8.32;5.07;;;;;;;-144.30;25.49;81113.09;5024602;28;20260;-49
2023/07/17 07:46:09;;;;;;;7.30;5.03;;;;;;;-144.30;25.40;81065.44;5024074;28;20635;-49
2023/07/17 07:48:36;;;;;;;5.55;4.88;;;;;;;-144.30;25.55;80988.00;5025020;28;20268;-52
2023/07/17 07:51:03;;;;;;;5.70;5.20;;;;;;;-144.30;25.99;81055.50;5022054;28;20200;-52
2023/07/17 07:53:30;;;;;;;5.45;4.95;;;;;;;-144.30;25.63;81037.66;5022898;28;20197;-50
2023/07/17 07:55:58;;;;;;;5.85;5.40;;;;;;;-144.30;25.72;80874.84;5022763;28;20200;-52
2023/07/17 07:58:26;;;;;;;7.18;5.47;;;;;;;-144.30;25.10;80753.75;5022553;28;20661;-52
2023/07/17 08:00:54;;;;;;;6.85;4.50;;;;;;;-144.30;25.37;80714.03;5020747;28;20196;-52
2023/07/17 08:03:21;;;;;;;8.23;5.18;;;;;;;-144.30;25.37;80672.34;5022163;28;20220;-52
2023/07/17 08:05:48;;;;;;;5.95;5.03;;;;;;;-144.30;25.49;80608.81;5021169;28;20193;-52
2023/07/17 08:08:14;;;;;;;12.27;5.13;;;;;;;-144.30;25.37;80442.06;5022599;28;20196;-50
2023/07/17 08:10:41;;;;;;;5.15;4.65;;;;;;;-144.30;24.77;80263.41;5021515;28;20197;-50
2023/07/17 08:13:08;;;;;;;5.53;5.03;;;;;;;-144.30;24.31;80009.34;5025214;28;20193;-49
2023/07/17 08:15:36;;;;;;;6.50;5.28;;;;;;;-144.30;23.91;80116.53;5020362;28;20194;-50
2023/07/17 08:18:04;;;;;;;6.95;4.95;;;;;;;-144.30;23.84;80027.22;5023222;28;20200;-50
2023/07/17 08:20:31;;;;;;;5.82;5.32;;;;;;;-144.30;23.99;79979.59;5020469;28;20201;-52
2023/07/17 08:22:58;;;;;;;5.20;4.80;;;;;;;-144.30;24.52;79943.84;5022037;28;20307;-52
2023/07/17 08:25:24;;;;;;;6.72;5.28;;;;;;;-144.30;24.06;79820.78;5021630;28;20199;-52
2023/07/17 08:27:52;;;;;;;7.53;5.30;;;;;;;-144.30;23.93;79707.66;5020179;28;20194;-52
2023/07/17 08:30:19;;;;;;;7.25;5.07;;;;;;;-144.30;23.84;79769.19;5021917;28;20468;-48
2023/07/17 08:32:47;;;;;;;5.80;5.25;;;;;;;-144.30;24.73;80205.84;5021336;28;20647;-50
2023/07/17 08:35:14;;;;;;;8.38;4.95;;;;;;;-144.30;25.30;80509.56;5019968;28;20189;-50
2023/07/17 08:37:41;;;;;;;5.53;5.10;;;;;;;-144.30;24.92;80440.09;5021863;28;20230;-49
2023/07/17 08:40:10;;;;;;;5.88;5.22;;;;;;;-144.30;25.02;80541.31;5022374;28;20199;-50
2023/07/17 08:42:38;;;;;;;9.80;5.32;;;;;;;-144.30;25.30;80569.13;5023172;28;20641;-50
2023/07/17 08:45:07;;;;;;;8.00;4.85;;;;;;;-144.30;25.51;80684.25;5031269;28;20289;-49
2023/07/17 08:47:34;;;;;;;7.25;5.38;;;;;;;-144.30;25.87;80775.59;5031038;28;20227;-50
2023/07/17 08:50:05;;;;;;;6.40;5.90;;;;;;;-144.30;26.58;80950.28;5031253;28;20672;-50
2023/07/17 08:52:33;;;;;;;6.18;5.20;;;;;;;-144.30;26.58;81079.34;5031493;28;20200;-52
2023/07/17 08:55:00;;;;;;;8.45;5.85;;;;;;;-144.30;26.61;81065.44;5031547;28;20205;-52
2023/07/17 08:57:28;;;;;;;7.10;4.82;;;;;;;-144.30;26.99;81111.13;5031123;28;20293;-52
2023/07/17 08:59:56;;;;;;;6.22;5.32;;;;;;;-144.30;27.01;81073.38;5031132;28;20752;-52
2023/07/17 09:02:23;;;;;;;5.70;5.20;;;;;;;-144.30;26.58;81013.81;5031045;28;20201;-52
2023/07/17 09:04:50;;;;;;;7.28;6.15;;;;;;;-144.30;26.50;81138.91;5031261;28;20247;-52
2023/07/17 09:07:18;;;;;;;5.53;5.05;;;;;;;-144.30;26.61;81160.75;5030840;28;20208;-49
2023/07/17 09:09:45;;;;;;;5.97;5.47;;;;;;;-144.30;26.70;81144.88;5031038;28;20714;-50
2023/07/17 09:12:16;;;;;;;7.40;5.15;;;;;;;-144.30;26.61;81140.91;5030957;28;20196;-50
2023/07/17 09:14:43;;;;;;;7.07;4.90;;;;;;;-144.30;26.91;81053.53;5030944;28;20192;-50
2023/07/17 09:17:11;;;;;;;5.97;5.45;;;;;;;-144.30;26.68;81053.53;5030618;28;20580;-52
2023/07/17 09:19:38;;;;;;;5.82;5.30;;;;;;;-144.30;26.76;80980.06;5030439;28;20279;-53
2023/07/17 09:22:07;;;;;;;6.00;5.60;;;;;;;-144.30;26.53;80966.19;5030636;28;20196;-53
2023/07/17 09:24:36;;;;;;;6.57;6.00;;;;;;;-144.30;26.46;80999.94;5030641;28;20697;-52
2023/07/17 09:27:06;;;;;;;9.82;5.95;;;;;;;-144.30;26.88;81085.31;5030746;28;20201;-53
2023/07/17 09:29:33;;;;;;;11.50;7.75;;;;;;;-144.30;26.89;81043.59;5030902;28;20201;-53
2023/07/17 09:32:15;;;;;;;8.20;5.80;;;;;;;-144.30;26.94;81043.59;5030761;28;20641;-52
2023/07/17 09:34:42;;;;;;;16.48;11.50;;;;;;;-144.30;26.58;80997.94;5030616;28;20744;-52
2023/07/17 09:37:09;;;;;;;11.52;9.10;;;;;;;-144.30;26.94;80984.03;5029907;28;20521;-51
2023/07/17 09:39:39;;;;;;;7.03;6.30;;;;;;;-144.30;26.54;80890.72;5030592;28;20271;-49
2023/07/17 09:42:22;;;;;;;6.22;5.68;;;;;;;-144.30;26.47;81003.91;5030384;28;20201;-50
2023/07/17 09:44:51;;;;;;;10.15;5.95;;;;;;;-144.30;26.74;80978.09;5029379;28;20275;-50
2023/07/17 09:47:19;;;;;;;8.85;6.25;;;;;;;-144.30;26.83;81059.50;5030414;28;20266;-52
2023/07/17 09:49:48;;;;;;;7.47;5.97;;;;;;;-144.30;26.99;81547.94;5030326;28;20200;-52
2023/07/17 09:52:15;;;;;;;6.30;5.70;;;;;;;-144.30;26.89;80906.63;5030304;28;20481;-49
2023/07/17 09:54:45;;;;;;;9.23;6.20;;;;;;;-144.30;26.77;80930.44;5030114;28;20197;-52
2023/07/17 09:57:23;;;;;;;7.57;6.32;;;;;;;-144.30;26.83;80938.38;5030129;28;20197;-51
2023/07/17 09:59:51;;;;;;;6.20;5.80;;;;;;;-144.30;26.65;80926.47;5030189;28;20196;-49
2023/07/17 10:02:19;;;;;;;7.35;6.30;;;;;;;-144.30;26.82;80860.94;5030056;28;20270;-49
2023/07/17 10:04:53;;;;;;;6.72;5.82;;;;;;;-144.30;26.77;80845.06;5029798;28;20228;-48
2023/07/17 10:07:21;;;;;;;7.13;6.70;;;;;;;-144.30;27.04;80880.81;5030288;28;20204;-49
2023/07/17 10:09:49;;;;;;;7.40;6.68;;;;;;;-144.30;26.85;80825.22;5029926;28;20201;-49
2023/07/17 10:12:17;;;;;;;10.57;6.55;;;;;;;-144.30;26.93;80888.75;5030242;28;20204;-49
2023/07/17 10:14:46;;;;;;;11.27;6.65;;;;;;;-144.30;27.10;80902.66;5030004;28;20676;-49
2023/07/17 10:17:29;;;;;;;7.95;7.00;;;;;;;-144.30;27.21;81049.56;5029749;28;20200;-52
2023/07/17 10:20:00;;;;;;;8.48;7.10;;;;;;;-144.30;27.62;81049.56;5030055;28;20207;-51
2023/07/17 10:22:35;;;;;;;7.95;7.18;;;;;;;-144.30;27.30;81045.59;5029879;28;20192;-49
2023/07/17 10:25:25;;;;;;;7.47;6.82;;;;;;;-144.30;27.63;81067.44;5030028;28;20230;-52
2023/07/17 10:27:57;;;;;;;8.23;7.57;;;;;;;-144.30;27.90;81093.25;5027629;28;20197;-52
2023/07/17 10:30:25;;;;;;;8.48;7.68;;;;;;;-144.30;28.13;81140.91;5030207;28;20200;-52
2023/07/17 10:33:05;;;;;;;7.50;6.80;;;;;;;-144.30;28.10;81206.41;5028840;28;20196;-52
2023/07/17 10:35:48;;;;;;;8.40;7.55;;;;;;;-144.30;28.44;81236.19;5024292;28;20205;-51
2023/07/17 10:38:16;;;;;;;10.45;7.72;;;;;;;-144.30;28.64;81363.28;5016892;28;20197;-48
2023/07/17 10:40:45;;;;;;;10.35;7.30;;;;;;;-144.30;28.85;81406.97;5018799;28;20208;-52
2023/07/17 10:43:14;;;;;;;8.10;7.40;;;;;;;-144.30;29.02;81383.13;5018633;28;20213;-53
2023/07/17 10:45:41;;;;;;;8.52;7.95;;;;;;;-144.30;29.47;81395.03;5019035;28;20189;-50
2023/07/17 10:48:09;;;;;;;8.77;7.93;;;;;;;-144.30;29.53;81490.34;5020804;28;20185;-53
2023/07/17 10:50:36;;;;;;;8.18;7.40;;;;;;;-144.30;29.43;81395.03;5019682;28;20197;-50
2023/07/17 10:53:03;;;;;;;8.48;7.05;;;;;;;-144.30;29.29;81502.28;5021822;28;20208;-50
2023/07/17 10:55:31;;;;;;;8.00;7.20;;;;;;;-144.30;29.24;81450.66;5022110;28;20208;-48
2023/07/17 10:58:01;;;;;;;8.45;7.68;;;;;;;-144.30;29.65;81367.25;5023356;28;20201;-49
2023/07/17 11:00:28;;;;;;;9.30;6.85;;;;;;;-144.30;29.44;81536.03;5024054;28;20310;-49
2023/07/17 11:02:56;;;;;;;13.43;6.78;;;;;;;-144.30;29.62;81661.13;5022051;28;20226;-52
2023/07/17 11:05:23;;;;;;;7.45;6.85;;;;;;;-144.30;29.72;81547.94;5033464;28;20224;-52
2023/07/17 11:07:50;;;;;;;9.40;6.85;;;;;;;-144.30;29.50;81536.03;5033528;28;20692;-49
2023/07/17 11:10:17;;;;;;;7.68;6.80;;;;;;;-144.30;29.46;81522.13;5033247;28;20208;-50
2023/07/17 11:12:45;;;;;;;8.10;7.07;;;;;;;-144.30;29.36;81516.16;5033163;28;20199;-50
2023/07/17 11:15:17;;;;;;;10.43;7.03;;;;;;;-144.30;29.67;81540.00;5033037;28;20199;-50
2023/07/17 11:17:45;;;;;;;9.00;6.93;;;;;;;-144.30;29.75;81466.53;5033016;28;20207;-51
2023/07/17 11:20:13;;;;;;;8.27;7.50;;;;;;;-144.30;29.67;81553.91;5032590;28;20585;-49